createdAt,value
2023-03-11T00:00:47.531Z,40.42
2023-03-11T00:02:51.396Z,39.09
2023-03-11T00:04:52.980Z,39.24
2023-03-11T00:06:55.872Z,39.81
2023-03-11T00:08:57.519Z,38.41
2023-03-11T00:10:59.929Z,38.87
2023-03-11T00:13:03.490Z,38.53
2023-03-11T00:15:06.096Z,38.32
2023-03-11T00:17:07.692Z,38.39
2023-03-11T00:19:10.321Z,38.56
2023-03-11T00:21:15.526Z,38.57
2023-03-11T00:23:18.547Z,38.75
2023-03-11T00:25:21.679Z,37.86
2023-03-11T00:27:23.373Z,38.81
2023-03-11T00:29:24.954Z,38.66
2023-03-11T00:31:26.650Z,38.36
2023-03-11T00:33:28.288Z,39.06
2023-03-11T00:35:32.692Z,38.54
2023-03-11T00:37:34.404Z,38.06
2023-03-11T00:39:37.565Z,37.69
2023-03-11T00:41:39.136Z,37.98
2023-03-11T00:43:40.766Z,38.32
2023-03-11T00:45:42.936Z,38.73
2023-03-11T00:47:44.616Z,38.84
2023-03-11T00:49:46.510Z,39.06
2023-03-11T00:51:53.954Z,38.93
2023-03-11T00:53:55.572Z,39.07
2023-03-11T00:55:58.644Z,38.94
2023-03-11T00:58:04.392Z,38.90
2023-03-11T01:00:07.160Z,38.61
2023-03-11T01:02:08.769Z,38.77
2023-03-11T01:04:10.555Z,39.15
2023-03-11T01:06:13.249Z,39.21
2023-03-11T01:08:14.936Z,39.19
2023-03-11T01:10:17.367Z,39.48
2023-03-11T01:12:20.274Z,39.62
2023-03-11T01:14:22.618Z,39.01
2023-03-11T01:16:24.886Z,39.29
2023-03-11T01:18:27.006Z,39.54
2023-03-11T01:20:29.227Z,39.47
2023-03-11T01:22:30.871Z,39.64
2023-03-11T01:24:32.533Z,40.04
2023-03-11T01:26:34.100Z,39.50
2023-03-11T01:28:37.085Z,40.44
2023-03-11T01:30:40.922Z,40.10
2023-03-11T01:32:43.204Z,39.68
2023-03-11T01:34:44.793Z,39.84
2023-03-11T01:36:46.323Z,39.92
2023-03-11T01:38:47.907Z,39.47
2023-03-11T01:40:51.854Z,39.65
2023-03-11T01:42:53.440Z,39.70
2023-03-11T01:44:59.198Z,39.62
2023-03-11T01:47:38.650Z,39.98
2023-03-11T01:49:40.496Z,40.11
2023-03-11T01:51:44.327Z,40.47
2023-03-11T01:53:46.372Z,39.62
2023-03-11T01:55:48.546Z,39.72
2023-03-11T01:57:51.672Z,39.23
2023-03-11T01:59:58.398Z,38.88
2023-03-11T02:02:16.008Z,39.78
2023-03-11T02:04:21.858Z,39.23
2023-03-11T02:06:25.425Z,38.94
2023-03-11T02:08:27.670Z,39.19
2023-03-11T02:10:30.468Z,38.83
2023-03-11T02:12:36.757Z,38.64
2023-03-11T02:14:43.872Z,38.79
2023-03-11T02:16:45.969Z,38.21
2023-03-11T02:18:49.080Z,38.77
2023-03-11T02:20:59.209Z,38.52
2023-03-11T02:23:01.231Z,38.48
2023-03-11T02:25:09.075Z,38.69
2023-03-11T02:27:18.062Z,38.21
2023-03-11T02:29:21.173Z,38.62
2023-03-11T02:31:23.969Z,38.22
2023-03-11T02:33:30.734Z,39.08
2023-03-11T02:35:32.325Z,38.89
2023-03-11T02:37:33.925Z,39.67
2023-03-11T02:39:37.330Z,39.70
2023-03-11T02:41:41.649Z,39.67
2023-03-11T02:43:46.653Z,39.49
2023-03-11T02:45:49.432Z,39.63
2023-03-11T02:47:52.769Z,40.08
2023-03-11T02:49:56.286Z,39.01
2023-03-11T02:51:57.884Z,38.92
2023-03-11T02:54:03.351Z,39.12
2023-03-11T02:56:05.344Z,39.42
2023-03-11T02:58:07.116Z,40.00
2023-03-11T03:00:12.041Z,40.31
2023-03-11T03:02:13.803Z,40.54
2023-03-11T03:04:15.393Z,40.78
2023-03-11T03:06:18.042Z,40.47
2023-03-11T03:08:19.654Z,39.77
2023-03-11T03:10:22.500Z,40.01
2023-03-11T03:12:24.397Z,39.25
2023-03-11T03:14:26.391Z,39.95
2023-03-11T03:16:29.348Z,39.65
2023-03-11T03:18:31.082Z,39.70
2023-03-11T03:20:32.705Z,39.79
2023-03-11T03:22:34.320Z,40.23
2023-03-11T03:24:35.893Z,39.90
2023-03-11T03:26:37.777Z,40.72
2023-03-11T03:28:39.525Z,40.26
2023-03-11T03:30:41.801Z,40.62
2023-03-11T03:32:44.942Z,41.29
2023-03-11T03:34:46.546Z,41.21
2023-03-11T03:36:48.089Z,40.42
2023-03-11T03:38:53.773Z,40.51
2023-03-11T03:40:55.456Z,40.98
2023-03-11T03:42:56.980Z,41.13
2023-03-11T03:44:58.591Z,41.44
2023-03-11T03:47:00.185Z,41.44
2023-03-11T03:49:03.132Z,41.32
2023-03-11T03:51:05.622Z,41.44
2023-03-11T03:53:07.377Z,41.54
2023-03-11T03:55:09.778Z,41.37
2023-03-11T03:57:11.364Z,41.31
2023-03-11T03:59:13.146Z,41.49
2023-03-11T04:01:14.968Z,41.68
2023-03-11T04:03:16.682Z,41.56
2023-03-11T04:05:19.724Z,41.30
2023-03-11T04:07:21.294Z,41.65
2023-03-11T04:09:22.884Z,41.47
2023-03-11T04:11:24.474Z,41.74
2023-03-11T04:13:26.014Z,41.52
2023-03-11T04:15:27.572Z,40.96
2023-03-11T04:17:29.237Z,41.42
2023-03-11T04:19:30.755Z,41.37
2023-03-11T04:21:33.994Z,41.00
2023-03-11T04:23:35.598Z,41.60
2023-03-11T04:25:37.274Z,41.44
2023-03-11T04:27:38.988Z,41.88
2023-03-11T04:29:40.523Z,41.85
2023-03-11T04:31:42.081Z,41.60
2023-03-11T04:33:43.732Z,41.80
2023-03-11T04:35:45.413Z,42.00
2023-03-11T04:37:48.367Z,41.79
2023-03-11T04:39:50.923Z,41.72
2023-03-11T04:41:52.598Z,42.23
2023-03-11T04:43:54.306Z,41.96
2023-03-11T04:45:56.056Z,41.62
2023-03-11T04:47:57.689Z,41.55
2023-03-11T04:49:59.305Z,41.25
2023-03-11T04:52:00.897Z,41.64
2023-03-11T04:54:03.979Z,41.61
2023-03-11T04:56:05.884Z,42.23
2023-03-11T04:58:07.598Z,41.63
2023-03-11T05:00:11.982Z,42.23
2023-03-11T05:02:13.704Z,42.07
2023-03-11T05:04:15.533Z,41.90
2023-03-11T05:06:17.138Z,41.63
2023-03-11T05:08:19.823Z,42.06
2023-03-11T05:10:22.876Z,41.90
2023-03-11T05:12:24.509Z,42.12
2023-03-11T05:14:26.219Z,41.89
2023-03-11T05:16:27.933Z,41.96
2023-03-11T05:18:29.706Z,41.92
2023-03-11T05:20:31.270Z,42.56
2023-03-11T05:22:33.165Z,42.55
2023-03-11T05:24:34.893Z,42.48
2023-03-11T05:26:37.788Z,42.49
2023-03-11T05:28:39.410Z,43.26
2023-03-11T05:30:41.098Z,43.41
2023-03-11T05:32:42.937Z,43.58
2023-03-11T05:34:44.751Z,43.30
2023-03-11T05:36:46.672Z,43.40
2023-03-11T05:38:48.189Z,43.02
2023-03-11T05:40:50.035Z,43.11
2023-03-11T05:42:52.937Z,42.58
2023-03-11T05:44:54.466Z,43.18
2023-03-11T05:46:56.254Z,43.28
2023-03-11T05:48:59.073Z,43.45
2023-03-11T05:51:00.637Z,43.27
2023-03-11T05:53:02.195Z,43.38
2023-03-11T05:55:04.212Z,43.36
2023-03-11T05:57:06.190Z,43.65
2023-03-11T05:59:09.495Z,43.51
2023-03-11T06:01:12.449Z,43.69
2023-03-11T06:03:13.975Z,43.72
2023-03-11T06:05:16.052Z,44.07
2023-03-11T06:07:17.778Z,43.47
2023-03-11T06:09:19.648Z,44.16
2023-03-11T06:11:21.200Z,43.59
2023-03-11T06:13:22.753Z,43.74
2023-03-11T06:15:25.613Z,44.28
2023-03-11T06:17:29.341Z,44.17
2023-03-11T06:19:32.017Z,43.57
2023-03-11T06:21:35.724Z,43.62
2023-03-11T06:23:37.324Z,43.92
2023-03-11T06:25:39.062Z,44.06
2023-03-11T06:27:40.656Z,44.22
2023-03-11T06:29:42.237Z,44.55
2023-03-11T06:31:45.346Z,44.36
2023-03-11T06:33:47.434Z,43.74
2023-03-11T06:35:56.429Z,44.54
2023-03-11T06:37:58.064Z,44.10
2023-03-11T06:39:59.644Z,44.08
2023-03-11T06:42:01.140Z,43.65
2023-03-11T06:44:02.744Z,43.47
2023-03-11T06:46:09.398Z,44.32
2023-03-11T06:48:12.380Z,43.98
2023-03-11T06:50:13.914Z,44.32
2023-03-11T06:52:15.518Z,44.26
2023-03-11T06:54:17.135Z,44.28
2023-03-11T06:56:20.058Z,44.40
2023-03-11T06:58:21.806Z,44.55
2023-03-11T07:00:23.662Z,43.67
2023-03-11T07:02:25.326Z,43.80
2023-03-11T07:04:28.331Z,43.67
2023-03-11T07:06:30.365Z,44.02
2023-03-11T07:08:31.950Z,43.58
2023-03-11T07:10:33.647Z,43.45
2023-03-11T07:12:35.290Z,43.60
2023-03-11T07:14:37.861Z,43.58
2023-03-11T07:16:39.941Z,43.85
2023-03-11T07:18:43.139Z,43.46
2023-03-11T07:20:46.033Z,43.99
2023-03-11T07:22:47.591Z,43.97
2023-03-11T07:24:50.136Z,43.01
2023-03-11T07:26:51.806Z,43.56
2023-03-11T07:28:54.595Z,44.18
2023-03-11T07:30:56.945Z,44.10
2023-03-11T07:32:58.601Z,43.85
2023-03-11T07:35:00.240Z,43.67
2023-03-11T07:37:03.869Z,42.88
2023-03-11T07:39:06.027Z,42.91
2023-03-11T07:41:09.258Z,43.54
2023-03-11T07:43:11.231Z,43.35
2023-03-11T07:45:12.974Z,43.67
2023-03-11T07:47:14.543Z,43.24
2023-03-11T07:49:16.560Z,43.51
2023-03-11T07:51:20.518Z,43.55
2023-03-11T07:53:23.879Z,43.32
2023-03-11T07:55:25.614Z,43.25
2023-03-11T07:57:27.464Z,42.95
2023-03-11T07:59:29.072Z,43.15
2023-03-11T08:01:32.379Z,43.06
2023-03-11T08:03:34.175Z,42.39
2023-03-11T08:05:35.729Z,42.76
2023-03-11T08:07:37.360Z,43.24
2023-03-11T08:09:40.275Z,43.23
2023-03-11T08:11:41.957Z,42.98
2023-03-11T08:13:44.780Z,41.98
2023-03-11T08:15:46.515Z,41.32
2023-03-11T08:17:48.163Z,40.98
2023-03-11T08:19:50.078Z,40.06
2023-03-11T08:21:51.938Z,40.86
2023-03-11T08:23:57.531Z,40.00
2023-03-11T08:26:03.552Z,39.62
2023-03-11T08:28:05.504Z,38.79
2023-03-11T08:30:08.791Z,38.94
2023-03-11T08:32:10.648Z,37.91
2023-03-11T08:34:15.196Z,38.06
2023-03-11T08:36:17.638Z,38.76
2023-03-11T08:38:19.352Z,37.53
2023-03-11T08:40:20.896Z,37.22
2023-03-11T08:42:23.894Z,36.34
2023-03-11T08:44:25.628Z,36.49
2023-03-11T08:46:29.317Z,36.49
2023-03-11T08:48:30.986Z,36.13
2023-03-11T08:50:38.738Z,35.97
2023-03-11T08:52:49.176Z,36.15
2023-03-11T08:54:50.917Z,35.07
2023-03-11T08:56:58.866Z,33.00
2023-03-11T08:59:02.075Z,34.27
2023-03-11T09:01:04.314Z,34.34
2023-03-11T09:03:06.159Z,33.47
2023-03-11T09:05:08.395Z,34.62
2023-03-11T09:07:11.595Z,34.67
2023-03-11T09:09:13.390Z,33.41
2023-03-11T09:11:15.903Z,34.56
2023-03-11T09:13:17.425Z,34.76
2023-03-11T09:15:20.445Z,35.12
2023-03-11T09:17:22.339Z,34.83
2023-03-11T09:19:23.859Z,33.56
2023-03-11T09:21:25.839Z,32.97
2023-03-11T09:23:27.493Z,33.33
2023-03-11T09:25:29.286Z,32.33
2023-03-11T09:27:30.860Z,31.75
2023-03-11T09:29:32.445Z,31.86
2023-03-11T09:31:35.453Z,30.87
2023-03-11T09:33:38.278Z,30.99
2023-03-11T09:35:39.878Z,31.50
2023-03-11T09:37:41.715Z,32.35
2023-03-11T09:39:43.726Z,29.52
2023-03-11T09:41:58.566Z,29.09
2023-03-11T09:44:13.990Z,30.24
2023-03-11T09:46:34.565Z,30.00
2023-03-11T09:48:44.562Z,30.93
2023-03-11T09:50:51.652Z,29.94
2023-03-11T09:53:02.450Z,29.59
2023-03-11T09:55:12.260Z,29.12
2023-03-11T09:57:17.850Z,29.35
2023-03-11T09:59:27.840Z,29.41
2023-03-11T10:01:36.462Z,28.48
2023-03-11T10:03:40.100Z,28.08
2023-03-11T10:05:45.140Z,29.31
2023-03-11T10:08:01.947Z,29.90
2023-03-11T10:10:04.096Z,27.68
2023-03-11T10:12:25.467Z,27.62
2023-03-11T10:14:43.600Z,27.69
2023-03-11T10:16:55.672Z,26.58
2023-03-11T10:19:03.858Z,26.66
2023-03-11T10:21:12.326Z,27.98
2023-03-11T10:23:22.222Z,27.62
2023-03-11T10:25:28.476Z,28.64
2023-03-11T10:27:35.776Z,28.47
2023-03-11T10:29:47.265Z,26.96
2023-03-11T10:31:54.768Z,28.02
2023-03-11T10:34:02.977Z,28.72
2023-03-11T10:36:10.340Z,26.14
2023-03-11T10:38:16.953Z,24.96
2023-03-11T10:40:28.634Z,26.73
2023-03-11T10:42:30.273Z,27.44
2023-03-11T10:44:34.984Z,27.12
2023-03-11T10:46:36.627Z,26.87
2023-03-11T10:48:38.242Z,27.86
2023-03-11T10:50:52.616Z,25.49
2023-03-11T10:53:08.969Z,23.43
2023-03-11T10:55:16.512Z,23.53
2023-03-11T10:57:24.153Z,23.96
2023-03-11T10:59:31.449Z,22.95
2023-03-11T11:01:33.122Z,23.07
2023-03-11T11:03:35.604Z,23.83
2023-03-11T11:05:37.341Z,23.41
2023-03-11T11:07:44.364Z,21.30
2023-03-11T11:09:46.118Z,23.09
2023-03-11T11:12:02.260Z,23.06
2023-03-11T11:14:03.807Z,22.48
2023-03-11T11:16:19.125Z,21.58
2023-03-11T11:18:23.078Z,23.42
2023-03-11T11:20:26.997Z,23.40
2023-03-11T11:22:28.760Z,23.60
2023-03-11T11:24:36.842Z,24.91
2023-03-11T11:26:41.479Z,24.43
2023-03-11T11:28:43.161Z,24.51
2023-03-11T11:30:53.769Z,24.09
2023-03-11T11:32:55.641Z,23.60
2023-03-11T11:34:59.606Z,22.12
2023-03-11T11:37:03.864Z,22.34
2023-03-11T11:39:16.365Z,22.10
2023-03-11T11:41:22.591Z,21.28
2023-03-11T11:43:37.403Z,20.53
2023-03-11T11:45:41.348Z,19.91
2023-03-11T11:47:47.549Z,19.15
2023-03-11T11:49:54.395Z,20.32
2023-03-11T11:52:00.516Z,18.20
2023-03-11T11:54:14.997Z,18.55
2023-03-11T11:56:16.576Z,17.54
2023-03-11T11:58:19.760Z,16.89
2023-03-11T12:00:24.306Z,15.37
2023-03-11T12:02:43.774Z,15.20
2023-03-11T12:04:53.412Z,13.87
2023-03-11T12:07:09.438Z,15.05
2023-03-11T12:09:23.259Z,14.83
2023-03-11T12:11:30.389Z,15.79
2023-03-11T12:13:54.434Z,14.47
2023-03-11T12:16:02.461Z,13.88
2023-03-11T12:18:12.397Z,14.40
2023-03-11T12:20:20.907Z,13.65
2023-03-11T12:23:03.608Z,13.45
2023-03-11T12:25:31.774Z,13.56
2023-03-11T12:27:41.311Z,14.32
2023-03-11T12:29:48.828Z,14.02
2023-03-11T12:31:51.556Z,14.49
2023-03-11T12:33:58.078Z,14.15
2023-03-11T12:36:01.830Z,14.92
2023-03-11T12:38:16.737Z,15.06
2023-03-11T12:40:47.521Z,14.59
2023-03-11T12:42:49.163Z,16.47
2023-03-11T12:44:52.417Z,16.26
2023-03-11T12:47:02.856Z,15.91
2023-03-11T12:49:12.573Z,17.09
2023-03-11T12:51:39.423Z,17.93
2023-03-11T12:53:47.407Z,18.46
2023-03-11T12:56:05.009Z,19.33
2023-03-11T12:58:40.635Z,20.23
2023-03-11T13:01:00.343Z,20.00
2023-03-11T13:03:28.750Z,19.19
2023-03-11T13:05:39.993Z,20.28
2023-03-11T13:07:48.320Z,19.89
2023-03-11T13:10:01.897Z,19.77
2023-03-11T13:12:04.054Z,20.58
2023-03-11T13:14:27.037Z,20.68
2023-03-11T13:16:41.288Z,21.09
2023-03-11T13:18:44.589Z,19.76
2023-03-11T13:20:52.013Z,19.53
2023-03-11T13:23:24.358Z,21.00
2023-03-11T13:25:30.043Z,20.80
2023-03-11T13:27:40.788Z,20.41
2023-03-11T13:29:52.025Z,20.26
2023-03-11T13:32:12.533Z,20.20
2023-03-11T13:34:16.389Z,21.82
2023-03-11T13:36:39.192Z,21.25
2023-03-11T13:39:02.136Z,22.06
2023-03-11T13:41:13.332Z,23.80
2023-03-11T13:43:17.472Z,24.08
2023-03-11T13:45:29.288Z,23.55
2023-03-11T13:47:35.394Z,23.05
2023-03-11T13:49:42.769Z,22.36
2023-03-11T13:51:47.520Z,22.88
2023-03-11T13:53:54.575Z,23.20
2023-03-11T13:55:58.239Z,24.48
2023-03-11T13:57:59.890Z,25.10
2023-03-11T14:00:16.568Z,25.64
2023-03-11T14:02:20.441Z,27.07
2023-03-11T14:04:27.116Z,25.71
2023-03-11T14:06:30.638Z,25.67
2023-03-11T14:08:34.131Z,24.64
2023-03-11T14:10:36.247Z,25.26
2023-03-11T14:12:38.405Z,25.34
2023-03-11T14:14:46.474Z,25.46
2023-03-11T14:16:48.415Z,26.13
2023-03-11T14:19:02.766Z,26.87
2023-03-11T14:21:11.731Z,25.97
2023-03-11T14:23:19.070Z,24.98
2023-03-11T14:25:24.077Z,25.27
2023-03-11T14:27:27.836Z,26.11
2023-03-11T14:29:32.789Z,24.53
2023-03-11T14:31:36.676Z,24.84
2023-03-11T14:33:38.360Z,24.52
2023-03-11T14:35:40.109Z,24.88
2023-03-11T14:37:43.022Z,27.24
2023-03-11T14:39:45.363Z,26.18
2023-03-11T14:41:47.317Z,24.48
2023-03-11T14:43:53.932Z,24.40
2023-03-11T14:45:56.492Z,24.27
2023-03-11T14:48:03.851Z,24.93
2023-03-11T14:50:10.066Z,24.74
2023-03-11T14:52:18.716Z,24.20
2023-03-11T14:54:25.948Z,24.01
2023-03-11T14:56:28.135Z,23.94
2023-03-11T14:58:32.875Z,24.09
2023-03-11T15:00:40.232Z,24.70
2023-03-11T15:02:48.126Z,24.84
2023-03-11T15:04:50.764Z,24.99
2023-03-11T15:06:53.454Z,25.12
2023-03-11T15:08:58.603Z,24.70
2023-03-11T15:11:18.944Z,24.66
2023-03-11T15:13:24.245Z,24.19
2023-03-11T15:15:30.011Z,24.12
2023-03-11T15:17:38.382Z,23.98
2023-03-11T15:19:45.104Z,24.75
2023-03-11T15:21:47.845Z,24.87
2023-03-11T15:23:51.545Z,24.80
2023-03-11T15:25:53.210Z,24.94
2023-03-11T15:27:56.709Z,25.57
2023-03-11T15:29:59.676Z,25.80
2023-03-11T15:32:37.330Z,25.83
2023-03-11T15:34:39.041Z,25.92
2023-03-11T15:36:45.402Z,25.29
2023-03-11T15:38:47.314Z,25.65
2023-03-11T15:40:55.215Z,26.23
2023-03-11T15:43:26.475Z,26.00
2023-03-11T15:45:28.597Z,26.94
2023-03-11T15:47:31.960Z,27.20
2023-03-11T15:49:33.874Z,26.69
2023-03-11T15:51:35.765Z,26.44
2023-03-11T15:53:37.338Z,27.24
2023-03-11T15:55:38.984Z,27.89
2023-03-11T15:57:41.451Z,27.20
2023-03-11T15:59:43.229Z,27.96
2023-03-11T16:01:44.845Z,27.83
2023-03-11T16:03:48.153Z,28.34
2023-03-11T16:05:50.150Z,28.26
2023-03-11T16:07:51.855Z,28.64
2023-03-11T16:09:53.488Z,29.22
2023-03-11T16:11:55.650Z,29.53
2023-03-11T16:13:57.436Z,29.26
2023-03-11T16:15:59.200Z,29.36
2023-03-11T16:18:03.538Z,29.99
2023-03-11T16:20:07.666Z,29.81
2023-03-11T16:22:16.572Z,29.53
2023-03-11T16:24:23.485Z,30.21
2023-03-11T16:26:25.081Z,28.84
2023-03-11T16:28:27.075Z,28.58
2023-03-11T16:30:32.261Z,27.96
2023-03-11T16:32:33.938Z,28.37
2023-03-11T16:34:35.521Z,28.21
2023-03-11T16:36:38.447Z,28.85
2023-03-11T16:38:44.216Z,28.75
2023-03-11T16:40:49.651Z,28.85
2023-03-11T16:42:54.544Z,28.82
2023-03-11T16:44:56.055Z,28.86
2023-03-11T16:46:57.688Z,28.85
2023-03-11T16:48:59.244Z,28.10
2023-03-11T16:51:01.448Z,29.19
2023-03-11T16:53:04.476Z,29.37
2023-03-11T16:55:06.903Z,29.71
2023-03-11T16:57:08.529Z,29.74
2023-03-11T16:59:12.075Z,30.13
2023-03-11T17:01:14.055Z,30.39
2023-03-11T17:03:21.383Z,30.47
2023-03-11T17:05:23.871Z,30.32
2023-03-11T17:07:25.502Z,30.31
2023-03-11T17:09:28.482Z,30.27
2023-03-11T17:11:30.284Z,29.93
2023-03-11T17:13:31.927Z,30.11
2023-03-11T17:15:33.960Z,29.97
2023-03-11T17:17:36.152Z,29.82
2023-03-11T17:19:37.861Z,30.00
2023-03-11T17:21:39.781Z,30.04
2023-03-11T17:23:42.446Z,30.34
2023-03-11T17:25:45.455Z,30.41
2023-03-11T17:27:47.131Z,30.47
2023-03-11T17:29:50.859Z,30.46
2023-03-11T17:31:52.446Z,30.58
2023-03-11T17:33:54.141Z,31.06
2023-03-11T17:36:00.836Z,30.91
2023-03-11T17:38:02.941Z,31.07
2023-03-11T17:40:05.609Z,31.03
2023-03-11T17:42:08.637Z,31.30
2023-03-11T17:44:10.446Z,31.40
2023-03-11T17:46:14.367Z,31.61
2023-03-11T17:48:16.170Z,31.61
2023-03-11T17:50:20.759Z,31.42
2023-03-11T17:52:22.402Z,31.92
2023-03-11T17:54:24.242Z,31.85
2023-03-11T17:56:26.033Z,32.33
2023-03-11T17:58:28.918Z,31.81
2023-03-11T18:00:30.697Z,32.48
2023-03-11T18:02:32.411Z,32.60
2023-03-11T18:04:34.015Z,32.78
2023-03-11T18:06:35.597Z,32.93
2023-03-11T18:08:37.722Z,32.63
2023-03-11T18:10:39.340Z,32.86
2023-03-11T18:12:43.916Z,32.76
2023-03-11T18:14:46.933Z,32.81
2023-03-11T18:16:48.539Z,33.08
2023-03-11T18:18:50.305Z,33.21
2023-03-11T18:20:52.043Z,33.52
2023-03-11T18:22:53.670Z,33.63
2023-03-11T18:24:55.400Z,33.45
2023-03-11T18:26:57.078Z,33.31
2023-03-11T18:28:59.812Z,33.52
2023-03-11T18:31:07.294Z,33.49
2023-03-11T18:33:08.920Z,33.39
2023-03-11T18:35:11.078Z,33.33
2023-03-11T18:37:12.771Z,33.62
2023-03-11T18:39:14.390Z,33.62
2023-03-11T18:41:16.159Z,33.28
2023-03-11T18:43:17.820Z,33.27
2023-03-11T18:45:21.994Z,34.00
2023-03-11T18:47:25.414Z,33.47
2023-03-11T18:49:27.072Z,33.45
2023-03-11T18:51:31.004Z,33.93
2023-03-11T18:53:32.853Z,33.73
2023-03-11T18:55:35.448Z,33.09
2023-03-11T18:57:37.101Z,33.40
2023-03-11T18:59:38.663Z,33.96
2023-03-11T19:01:40.318Z,34.44
2023-03-11T19:03:45.124Z,34.07
2023-03-11T19:05:48.948Z,33.96
2023-03-11T19:07:52.046Z,34.32
2023-03-11T19:09:53.686Z,34.61
2023-03-11T19:11:55.305Z,34.71
2023-03-11T19:13:56.910Z,34.14
2023-03-11T19:15:59.778Z,34.12
2023-03-11T19:18:06.978Z,34.13
2023-03-11T19:20:12.076Z,34.58
2023-03-11T19:22:13.700Z,34.97
2023-03-11T19:24:15.284Z,34.45
2023-03-11T19:26:17.069Z,35.07
2023-03-11T19:28:18.926Z,34.87
2023-03-11T19:30:21.339Z,35.39
2023-03-11T19:32:23.172Z,35.64
2023-03-11T19:34:24.872Z,35.93
2023-03-11T19:36:28.006Z,36.29
2023-03-11T19:38:30.009Z,35.58
2023-03-11T19:40:31.591Z,36.22
2023-03-11T19:42:33.464Z,35.97
2023-03-11T19:44:35.173Z,35.76
2023-03-11T19:46:36.808Z,34.70
2023-03-11T19:48:38.421Z,35.14
2023-03-11T19:50:40.454Z,34.35
2023-03-11T19:52:43.486Z,34.14
2023-03-11T19:54:45.103Z,34.83
2023-03-11T19:56:46.856Z,35.10
2023-03-11T19:58:48.405Z,34.88
2023-03-11T20:00:50.438Z,35.10
2023-03-11T20:02:54.544Z,35.60
2023-03-11T20:04:56.411Z,35.17
2023-03-11T20:06:58.411Z,35.30
2023-03-11T20:09:01.457Z,36.21
2023-03-11T20:11:04.177Z,36.23
2023-03-11T20:13:06.747Z,36.26
2023-03-11T20:15:09.716Z,35.42
2023-03-11T20:17:11.274Z,35.94
2023-03-11T20:19:12.891Z,36.84
2023-03-11T20:21:14.591Z,36.31
2023-03-11T20:23:16.206Z,35.84
2023-03-11T20:25:19.177Z,36.76
2023-03-11T20:27:20.998Z,36.90
2023-03-11T20:29:24.137Z,36.32
2023-03-11T20:31:27.636Z,36.35
2023-03-11T20:33:29.447Z,36.45
2023-03-11T20:35:31.012Z,36.76
2023-03-11T20:37:33.143Z,36.75
2023-03-11T20:39:34.828Z,36.77
2023-03-11T20:41:40.212Z,36.83
2023-03-11T20:43:42.401Z,36.71
2023-03-11T20:45:44.067Z,36.98
2023-03-11T20:47:45.750Z,36.93
2023-03-11T20:49:47.343Z,36.74
2023-03-11T20:51:49.097Z,36.60
2023-03-11T20:53:51.838Z,36.78
2023-03-11T20:55:53.549Z,36.89
2023-03-11T20:57:56.728Z,36.65
2023-03-11T20:59:58.394Z,36.91
2023-03-11T21:02:00.150Z,36.46
2023-03-11T21:04:03.704Z,36.57
2023-03-11T21:06:13.025Z,36.56
2023-03-11T21:08:14.828Z,36.56
2023-03-11T21:10:17.435Z,36.51
2023-03-11T21:12:19.037Z,36.25
2023-03-11T21:14:22.034Z,36.63
2023-03-11T21:16:24.111Z,36.34
2023-03-11T21:18:25.935Z,36.36
2023-03-11T21:20:27.891Z,36.62
2023-03-11T21:22:29.604Z,36.35
2023-03-11T21:24:32.930Z,36.58
2023-03-11T21:26:34.822Z,36.53
2023-03-11T21:28:37.074Z,37.00
2023-03-11T21:30:40.942Z,37.30
2023-03-11T21:32:42.784Z,36.98
2023-03-11T21:34:44.710Z,37.09
2023-03-11T21:36:49.179Z,37.36
2023-03-11T21:38:51.483Z,37.13
2023-03-11T21:40:54.370Z,37.48
2023-03-11T21:42:56.001Z,37.43
2023-03-11T21:44:57.700Z,37.88
2023-03-11T21:47:00.890Z,37.52
2023-03-11T21:49:02.573Z,37.08
2023-03-11T21:51:04.852Z,36.86
2023-03-11T21:53:07.195Z,37.06
2023-03-11T21:55:09.621Z,36.58
2023-03-11T21:57:11.229Z,36.66
2023-03-11T21:59:12.942Z,36.82
2023-03-11T22:01:14.874Z,37.16
2023-03-11T22:03:18.411Z,37.08
2023-03-11T22:05:20.135Z,37.16
2023-03-11T22:07:21.739Z,37.30
2023-03-11T22:09:23.374Z,37.69
2023-03-11T22:11:25.213Z,37.38
2023-03-11T22:13:26.913Z,37.36
2023-03-11T22:15:28.521Z,37.39
2023-03-11T22:17:30.209Z,37.42
2023-03-11T22:19:33.425Z,37.65
2023-03-11T22:21:35.097Z,37.75
2023-03-11T22:23:36.779Z,37.56
2023-03-11T22:25:38.561Z,37.78
2023-03-11T22:27:40.140Z,37.71
2023-03-11T22:29:41.934Z,38.29
2023-03-11T22:31:43.648Z,37.61
2023-03-11T22:33:45.492Z,37.81
2023-03-11T22:35:53.802Z,37.89
2023-03-11T22:38:00.668Z,37.80
2023-03-11T22:40:02.304Z,37.98
2023-03-11T22:42:04.055Z,38.00
2023-03-11T22:44:06.065Z,38.24
2023-03-11T22:46:07.864Z,37.89
2023-03-11T22:48:09.647Z,37.94
2023-03-11T22:50:11.329Z,37.99
2023-03-11T22:52:17.556Z,38.01
2023-03-11T22:54:19.198Z,37.81
2023-03-11T22:56:20.890Z,38.18
2023-03-11T22:58:22.486Z,37.83
2023-03-11T23:00:25.858Z,38.23
2023-03-11T23:02:27.443Z,38.30
2023-03-11T23:04:29.502Z,38.40
2023-03-11T23:06:31.172Z,38.71
2023-03-11T23:08:35.461Z,38.15
2023-03-11T23:10:38.944Z,39.26
2023-03-11T23:12:41.865Z,38.92
2023-03-11T23:14:45.262Z,38.51
2023-03-11T23:16:48.209Z,38.89
2023-03-11T23:18:52.125Z,38.86
2023-03-11T23:20:53.745Z,38.43
2023-03-11T23:22:55.445Z,38.56
2023-03-11T23:25:01.114Z,39.72
2023-03-11T23:27:03.119Z,39.49
2023-03-11T23:29:05.055Z,39.36
2023-03-11T23:31:06.905Z,38.81
2023-03-11T23:33:08.517Z,38.91
2023-03-11T23:35:11.447Z,38.64
2023-03-11T23:37:13.235Z,38.72
2023-03-11T23:39:15.127Z,39.14
2023-03-11T23:41:20.539Z,38.58
2023-03-11T23:43:22.404Z,38.24
2023-03-11T23:45:24.087Z,38.24
2023-03-11T23:47:25.687Z,38.44
2023-03-11T23:49:27.378Z,38.35
2023-03-11T23:51:28.961Z,39.12
2023-03-11T23:53:31.077Z,38.94
2023-03-11T23:55:37.106Z,38.84
2023-03-11T23:57:40.156Z,38.92
2023-03-11T23:59:41.730Z,39.40
